sensor_id;sensor_type;location;lat;lon;timestamp;P1;durP1;ratioP1;P2;durP2;ratioP2
4096;SDS011;2062;50.694;7.246;2023-04-06T00:00:09;12.82;;;4.78;;
4096;SDS011;2062;50.694;7.246;2023-04-06T00:02:37;12.00;;;4.63;;
4096;SDS011;2062;50.694;7.246;2023-04-06T00:05:05;10.25;;;4.00;;
4096;SDS011;2062;50.694;7.246;2023-04-06T00:07:33;12.90;;;4.28;;
4096;SDS011;2062;50.694;7.246;2023-04-06T00:10:00;9.55;;;4.30;;
4096;SDS011;2062;50.694;7.246;2023-04-06T00:12:27;12.80;;;4.50;;
4096;SDS011;2062;50.694;7.246;2023-04-06T00:14:54;10.00;;;4.47;;
4096;SDS011;2062;50.694;7.246;2023-04-06T00:17:22;11.30;;;4.18;;
4096;SDS011;2062;50.694;7.246;2023-04-06T00:19:49;14.18;;;4.43;;
4096;SDS011;2062;50.694;7.246;2023-04-06T00:22:16;10.73;;;4.53;;
4096;SDS011;2062;50.694;7.246;2023-04-06T00:24:43;10.77;;;4.50;;
4096;SDS011;2062;50.694;7.246;2023-04-06T00:27:10;11.30;;;4.17;;
4096;SDS011;2062;50.694;7.246;2023-04-06T00:29:37;9.45;;;4.15;;
4096;SDS011;2062;50.694;7.246;2023-04-06T00:32:05;8.73;;;4.00;;
4096;SDS011;2062;50.694;7.246;2023-04-06T00:34:33;9.13;;;4.13;;
4096;SDS011;2062;50.694;7.246;2023-04-06T00:37:00;9.60;;;4.03;;
4096;SDS011;2062;50.694;7.246;2023-04-06T00:39:27;9.87;;;4.30;;
4096;SDS011;2062;50.694;7.246;2023-04-06T00:41:54;8.70;;;4.22;;
4096;SDS011;2062;50.694;7.246;2023-04-06T00:44:22;10.18;;;4.28;;
4096;SDS011;2062;50.694;7.246;2023-04-06T00:46:50;9.02;;;4.18;;
4096;SDS011;2062;50.694;7.246;2023-04-06T00:49:17;10.10;;;4.40;;
4096;SDS011;2062;50.694;7.246;2023-04-06T00:51:45;9.27;;;4.20;;
4096;SDS011;2062;50.694;7.246;2023-04-06T00:54:12;9.80;;;4.15;;
4096;SDS011;2062;50.694;7.246;2023-04-06T00:56:41;10.18;;;4.00;;
4096;SDS011;2062;50.694;7.246;2023-04-06T00:59:08;9.02;;;4.00;;
4096;SDS011;2062;50.694;7.246;2023-04-06T01:01:35;10.18;;;4.03;;
4096;SDS011;2062;50.694;7.246;2023-04-06T01:04:02;13.00;;;4.70;;
4096;SDS011;2062;50.694;7.246;2023-04-06T01:06:29;11.00;;;4.15;;
4096;SDS011;2062;50.694;7.246;2023-04-06T01:08:57;10.40;;;4.30;;
4096;SDS011;2062;50.694;7.246;2023-04-06T01:11:24;10.30;;;4.25;;
4096;SDS011;2062;50.694;7.246;2023-04-06T01:13:51;11.57;;;4.60;;
4096;SDS011;2062;50.694;7.246;2023-04-06T01:16:18;11.40;;;4.60;;
4096;SDS011;2062;50.694;7.246;2023-04-06T01:18:45;11.63;;;4.25;;
4096;SDS011;2062;50.694;7.246;2023-04-06T01:21:12;12.00;;;4.68;;
4096;SDS011;2062;50.694;7.246;2023-04-06T01:23:43;11.18;;;4.63;;
4096;SDS011;2062;50.694;7.246;2023-04-06T01:26:11;12.40;;;4.13;;
4096;SDS011;2062;50.694;7.246;2023-04-06T01:28:38;11.33;;;4.23;;
4096;SDS011;2062;50.694;7.246;2023-04-06T01:31:06;12.40;;;4.55;;
4096;SDS011;2062;50.694;7.246;2023-04-06T01:33:34;9.30;;;4.13;;
4096;SDS011;2062;50.694;7.246;2023-04-06T01:36:01;8.70;;;4.05;;
4096;SDS011;2062;50.694;7.246;2023-04-06T01:38:29;9.50;;;4.28;;
4096;SDS011;2062;50.694;7.246;2023-04-06T01:40:57;9.13;;;4.23;;
4096;SDS011;2062;50.694;7.246;2023-04-06T01:43:24;8.50;;;3.95;;
4096;SDS011;2062;50.694;7.246;2023-04-06T01:45:51;10.63;;;4.10;;
4096;SDS011;2062;50.694;7.246;2023-04-06T01:48:18;10.23;;;4.15;;
4096;SDS011;2062;50.694;7.246;2023-04-06T01:50:45;11.75;;;4.13;;
4096;SDS011;2062;50.694;7.246;2023-04-06T01:53:12;8.40;;;3.53;;
4096;SDS011;2062;50.694;7.246;2023-04-06T01:55:39;9.30;;;3.78;;
4096;SDS011;2062;50.694;7.246;2023-04-06T01:58:07;8.80;;;3.67;;
4096;SDS011;2062;50.694;7.246;2023-04-06T02:00:34;10.18;;;3.67;;
4096;SDS011;2062;50.694;7.246;2023-04-06T02:03:01;9.80;;;3.60;;
4096;SDS011;2062;50.694;7.246;2023-04-06T02:05:29;10.73;;;4.17;;
4096;SDS011;2062;50.694;7.246;2023-04-06T02:07:58;8.68;;;3.60;;
4096;SDS011;2062;50.694;7.246;2023-04-06T02:10:25;10.73;;;3.70;;
4096;SDS011;2062;50.694;7.246;2023-04-06T02:12:52;9.23;;;4.03;;
4096;SDS011;2062;50.694;7.246;2023-04-06T02:15:20;9.23;;;4.03;;
4096;SDS011;2062;50.694;7.246;2023-04-06T02:17:47;8.43;;;3.53;;
4096;SDS011;2062;50.694;7.246;2023-04-06T02:20:14;9.85;;;3.60;;
4096;SDS011;2062;50.694;7.246;2023-04-06T02:22:41;9.40;;;3.70;;
4096;SDS011;2062;50.694;7.246;2023-04-06T02:25:08;12.45;;;3.78;;
4096;SDS011;2062;50.694;7.246;2023-04-06T02:27:36;13.00;;;4.00;;
4096;SDS011;2062;50.694;7.246;2023-04-06T02:30:03;9.00;;;3.90;;
4096;SDS011;2062;50.694;7.246;2023-04-06T02:32:32;11.60;;;3.90;;
4096;SDS011;2062;50.694;7.246;2023-04-06T02:34:59;8.63;;;3.80;;
4096;SDS011;2062;50.694;7.246;2023-04-06T02:37:26;10.15;;;4.18;;
4096;SDS011;2062;50.694;7.246;2023-04-06T02:39:53;8.45;;;3.80;;
4096;SDS011;2062;50.694;7.246;2023-04-06T02:42:20;10.07;;;3.70;;
4096;SDS011;2062;50.694;7.246;2023-04-06T02:44:47;8.27;;;3.53;;
4096;SDS011;2062;50.694;7.246;2023-04-06T02:47:14;7.45;;;3.30;;
4096;SDS011;2062;50.694;7.246;2023-04-06T02:49:42;12.10;;;4.32;;
4096;SDS011;2062;50.694;7.246;2023-04-06T02:52:09;11.60;;;4.10;;
4096;SDS011;2062;50.694;7.246;2023-04-06T02:54:36;9.00;;;4.20;;
4096;SDS011;2062;50.694;7.246;2023-04-06T02:57:03;9.70;;;4.18;;
4096;SDS011;2062;50.694;7.246;2023-04-06T02:59:30;10.10;;;4.00;;
4096;SDS011;2062;50.694;7.246;2023-04-06T03:01:57;10.32;;;3.83;;
4096;SDS011;2062;50.694;7.246;2023-04-06T03:04:24;8.25;;;3.53;;
4096;SDS011;2062;50.694;7.246;2023-04-06T03:06:53;8.63;;;3.67;;
4096;SDS011;2062;50.694;7.246;2023-04-06T03:09:21;9.23;;;3.40;;
4096;SDS011;2062;50.694;7.246;2023-04-06T03:11:48;8.70;;;3.88;;
4096;SDS011;2062;50.694;7.246;2023-04-06T03:14:15;10.40;;;3.75;;
4096;SDS011;2062;50.694;7.246;2023-04-06T03:16:46;8.52;;;3.50;;
4096;SDS011;2062;50.694;7.246;2023-04-06T03:19:13;8.60;;;3.77;;
4096;SDS011;2062;50.694;7.246;2023-04-06T03:21:40;10.38;;;3.47;;
4096;SDS011;2062;50.694;7.246;2023-04-06T03:24:09;11.05;;;4.28;;
4096;SDS011;2062;50.694;7.246;2023-04-06T03:26:35;10.68;;;3.88;;
4096;SDS011;2062;50.694;7.246;2023-04-06T03:29:02;8.27;;;3.63;;
4096;SDS011;2062;50.694;7.246;2023-04-06T03:31:30;9.00;;;3.90;;
4096;SDS011;2062;50.694;7.246;2023-04-06T03:33:56;9.15;;;3.90;;
4096;SDS011;2062;50.694;7.246;2023-04-06T03:36:24;11.05;;;4.00;;
4096;SDS011;2062;50.694;7.246;2023-04-06T03:38:51;12.23;;;4.38;;
4096;SDS011;2062;50.694;7.246;2023-04-06T03:41:20;13.95;;;4.45;;
4096;SDS011;2062;50.694;7.246;2023-04-06T03:43:47;10.13;;;4.10;;
4096;SDS011;2062;50.694;7.246;2023-04-06T03:46:15;9.90;;;3.97;;
4096;SDS011;2062;50.694;7.246;2023-04-06T03:48:41;11.02;;;3.97;;
4096;SDS011;2062;50.694;7.246;2023-04-06T03:51:08;9.57;;;3.83;;
4096;SDS011;2062;50.694;7.246;2023-04-06T03:53:35;10.30;;;4.10;;
4096;SDS011;2062;50.694;7.246;2023-04-06T03:56:03;9.40;;;3.87;;
4096;SDS011;2062;50.694;7.246;2023-04-06T03:58:32;10.63;;;3.92;;
4096;SDS011;2062;50.694;7.246;2023-04-06T04:00:59;10.10;;;4.03;;
4096;SDS011;2062;50.694;7.246;2023-04-06T04:03:26;8.43;;;4.32;;
4096;SDS011;2062;50.694;7.246;2023-04-06T04:05:53;10.05;;;3.97;;
4096;SDS011;2062;50.694;7.246;2023-04-06T04:08:21;12.17;;;3.93;;
4096;SDS011;2062;50.694;7.246;2023-04-06T04:10:47;9.95;;;3.45;;
4096;SDS011;2062;50.694;7.246;2023-04-06T04:13:14;8.95;;;3.97;;
4096;SDS011;2062;50.694;7.246;2023-04-06T04:15:43;9.32;;;4.00;;
4096;SDS011;2062;50.694;7.246;2023-04-06T04:18:10;10.85;;;4.30;;
4096;SDS011;2062;50.694;7.246;2023-04-06T04:20:37;11.93;;;3.90;;
4096;SDS011;2062;50.694;7.246;2023-04-06T04:23:04;10.57;;;3.97;;
4096;SDS011;2062;50.694;7.246;2023-04-06T04:25:31;9.90;;;4.18;;
4096;SDS011;2062;50.694;7.246;2023-04-06T04:27:58;9.63;;;3.60;;
4096;SDS011;2062;50.694;7.246;2023-04-06T04:30:25;9.15;;;3.97;;
4096;SDS011;2062;50.694;7.246;2023-04-06T04:32:53;10.00;;;4.33;;
4096;SDS011;2062;50.694;7.246;2023-04-06T04:35:20;8.05;;;3.17;;
4096;SDS011;2062;50.694;7.246;2023-04-06T04:37:47;9.02;;;3.92;;
4096;SDS011;2062;50.694;7.246;2023-04-06T04:40:14;9.32;;;4.05;;
4096;SDS011;2062;50.694;7.246;2023-04-06T04:42:41;11.50;;;4.20;;
4096;SDS011;2062;50.694;7.246;2023-04-06T04:45:09;10.37;;;4.00;;
4096;SDS011;2062;50.694;7.246;2023-04-06T04:47:36;9.77;;;3.67;;
4096;SDS011;2062;50.694;7.246;2023-04-06T04:50:05;8.63;;;3.45;;
4096;SDS011;2062;50.694;7.246;2023-04-06T04:52:32;11.77;;;3.78;;
4096;SDS011;2062;50.694;7.246;2023-04-06T04:54:59;13.40;;;4.30;;
4096;SDS011;2062;50.694;7.246;2023-04-06T04:57:26;12.10;;;3.80;;
4096;SDS011;2062;50.694;7.246;2023-04-06T04:59:53;9.57;;;3.72;;
4096;SDS011;2062;50.694;7.246;2023-04-06T05:02:20;11.60;;;4.07;;
4096;SDS011;2062;50.694;7.246;2023-04-06T05:04:47;8.85;;;3.90;;
4096;SDS011;2062;50.694;7.246;2023-04-06T05:07:16;11.70;;;4.22;;
4096;SDS011;2062;50.694;7.246;2023-04-06T05:09:46;9.50;;;4.00;;
4096;SDS011;2062;50.694;7.246;2023-04-06T05:12:12;10.02;;;3.70;;
4096;SDS011;2062;50.694;7.246;2023-04-06T05:14:39;10.65;;;4.30;;
4096;SDS011;2062;50.694;7.246;2023-04-06T05:17:06;11.68;;;4.20;;
4096;SDS011;2062;50.694;7.246;2023-04-06T05:19:34;9.15;;;3.92;;
4096;SDS011;2062;50.694;7.246;2023-04-06T05:22:01;11.03;;;4.30;;
4096;SDS011;2062;50.694;7.246;2023-04-06T05:24:30;9.50;;;3.72;;
4096;SDS011;2062;50.694;7.246;2023-04-06T05:26:56;12.27;;;3.70;;
4096;SDS011;2062;50.694;7.246;2023-04-06T05:29:25;9.38;;;3.78;;
4096;SDS011;2062;50.694;7.246;2023-04-06T05:31:52;12.57;;;4.03;;
4096;SDS011;2062;50.694;7.246;2023-04-06T05:34:19;10.43;;;4.20;;
4096;SDS011;2062;50.694;7.246;2023-04-06T05:36:46;11.65;;;4.30;;
4096;SDS011;2062;50.694;7.246;2023-04-06T05:39:13;11.32;;;4.22;;
4096;SDS011;2062;50.694;7.246;2023-04-06T05:41:41;10.60;;;4.38;;
4096;SDS011;2062;50.694;7.246;2023-04-06T05:44:08;11.70;;;4.57;;
4096;SDS011;2062;50.694;7.246;2023-04-06T05:46:35;11.33;;;4.53;;
4096;SDS011;2062;50.694;7.246;2023-04-06T05:49:02;11.50;;;4.50;;
4096;SDS011;2062;50.694;7.246;2023-04-06T05:51:29;13.32;;;4.85;;
4096;SDS011;2062;50.694;7.246;2023-04-06T05:53:56;12.68;;;4.10;;
4096;SDS011;2062;50.694;7.246;2023-04-06T05:56:23;11.57;;;4.63;;
4096;SDS011;2062;50.694;7.246;2023-04-06T05:58:52;13.53;;;4.50;;
4096;SDS011;2062;50.694;7.246;2023-04-06T06:01:19;14.13;;;5.05;;
4096;SDS011;2062;50.694;7.246;2023-04-06T06:03:46;10.85;;;4.30;;
4096;SDS011;2062;50.694;7.246;2023-04-06T06:06:13;11.80;;;4.68;;
4096;SDS011;2062;50.694;7.246;2023-04-06T06:08:40;12.93;;;5.15;;
4096;SDS011;2062;50.694;7.246;2023-04-06T06:11:06;13.57;;;5.00;;
4096;SDS011;2062;50.694;7.246;2023-04-06T06:13:33;15.23;;;4.85;;
4096;SDS011;2062;50.694;7.246;2023-04-06T06:16:02;12.18;;;4.93;;
4096;SDS011;2062;50.694;7.246;2023-04-06T06:18:30;13.85;;;5.18;;
4096;SDS011;2062;50.694;7.246;2023-04-06T06:20:57;12.82;;;4.80;;
4096;SDS011;2062;50.694;7.246;2023-04-06T06:23:25;11.90;;;5.17;;
4096;SDS011;2062;50.694;7.246;2023-04-06T06:25:52;15.73;;;5.13;;
4096;SDS011;2062;50.694;7.246;2023-04-06T06:28:19;12.07;;;4.88;;
4096;SDS011;2062;50.694;7.246;2023-04-06T06:30:46;12.95;;;5.07;;
4096;SDS011;2062;50.694;7.246;2023-04-06T06:33:14;13.07;;;5.03;;
4096;SDS011;2062;50.694;7.246;2023-04-06T06:35:41;13.17;;;4.97;;
4096;SDS011;2062;50.694;7.246;2023-04-06T06:38:08;14.10;;;5.05;;
4096;SDS011;2062;50.694;7.246;2023-04-06T06:40:34;14.18;;;5.45;;
4096;SDS011;2062;50.694;7.246;2023-04-06T06:43:01;11.90;;;4.90;;
4096;SDS011;2062;50.694;7.246;2023-04-06T06:45:28;14.45;;;5.10;;
4096;SDS011;2062;50.694;7.246;2023-04-06T06:47:57;12.63;;;4.50;;
4096;SDS011;2062;50.694;7.246;2023-04-06T06:50:25;14.73;;;5.03;;
4096;SDS011;2062;50.694;7.246;2023-04-06T06:52:53;11.40;;;5.15;;
4096;SDS011;2062;50.694;7.246;2023-04-06T06:55:20;14.30;;;5.60;;
4096;SDS011;2062;50.694;7.246;2023-04-06T06:57:47;11.93;;;4.78;;
4096;SDS011;2062;50.694;7.246;2023-04-06T07:00:14;15.07;;;5.50;;
4096;SDS011;2062;50.694;7.246;2023-04-06T07:02:41;14.32;;;5.80;;
4096;SDS011;2062;50.694;7.246;2023-04-06T07:05:08;14.90;;;5.82;;
4096;SDS011;2062;50.694;7.246;2023-04-06T07:07:37;14.15;;;5.80;;
4096;SDS011;2062;50.694;7.246;2023-04-06T07:10:04;13.60;;;6.15;;
4096;SDS011;2062;50.694;7.246;2023-04-06T07:12:31;12.97;;;5.10;;
4096;SDS011;2062;50.694;7.246;2023-04-06T07:14:58;13.15;;;5.65;;
4096;SDS011;2062;50.694;7.246;2023-04-06T07:17:25;14.23;;;5.40;;
4096;SDS011;2062;50.694;7.246;2023-04-06T07:19:52;13.68;;;5.72;;
4096;SDS011;2062;50.694;7.246;2023-04-06T07:22:19;13.05;;;5.47;;
4096;SDS011;2062;50.694;7.246;2023-04-06T07:24:47;12.50;;;5.60;;
4096;SDS011;2062;50.694;7.246;2023-04-06T07:27:14;11.88;;;5.53;;
4096;SDS011;2062;50.694;7.246;2023-04-06T07:29:42;15.07;;;5.82;;
4096;SDS011;2062;50.694;7.246;2023-04-06T07:32:09;14.85;;;5.90;;
4096;SDS011;2062;50.694;7.246;2023-04-06T07:34:36;15.60;;;6.10;;
4096;SDS011;2062;50.694;7.246;2023-04-06T07:37:03;17.83;;;5.80;;
4096;SDS011;2062;50.694;7.246;2023-04-06T07:39:29;12.77;;;5.13;;
4096;SDS011;2062;50.694;7.246;2023-04-06T07:41:58;13.48;;;5.70;;
4096;SDS011;2062;50.694;7.246;2023-04-06T07:44:25;15.15;;;5.85;;
4096;SDS011;2062;50.694;7.246;2023-04-06T07:46:52;12.40;;;5.45;;
4096;SDS011;2062;50.694;7.246;2023-04-06T07:49:19;12.03;;;5.23;;
4096;SDS011;2062;50.694;7.246;2023-04-06T07:51:46;16.40;;;6.00;;
4096;SDS011;2062;50.694;7.246;2023-04-06T07:54:12;11.77;;;5.07;;
4096;SDS011;2062;50.694;7.246;2023-04-06T07:56:39;15.95;;;6.05;;
4096;SDS011;2062;50.694;7.246;2023-04-06T07:59:09;14.30;;;5.72;;
4096;SDS011;2062;50.694;7.246;2023-04-06T08:01:37;12.83;;;5.60;;
4096;SDS011;2062;50.694;7.246;2023-04-06T08:04:07;14.60;;;5.78;;
4096;SDS011;2062;50.694;7.246;2023-04-06T08:06:34;13.73;;;5.50;;
4096;SDS011;2062;50.694;7.246;2023-04-06T08:09:01;12.65;;;5.05;;
4096;SDS011;2062;50.694;7.246;2023-04-06T08:11:28;12.80;;;5.70;;
4096;SDS011;2062;50.694;7.246;2023-04-06T08:13:56;13.30;;;6.00;;
4096;SDS011;2062;50.694;7.246;2023-04-06T08:16:24;12.07;;;5.28;;
4096;SDS011;2062;50.694;7.246;2023-04-06T08:18:51;13.93;;;5.65;;
4096;SDS011;2062;50.694;7.246;2023-04-06T08:21:18;12.40;;;5.32;;
4096;SDS011;2062;50.694;7.246;2023-04-06T08:23:45;11.02;;;4.82;;
4096;SDS011;2062;50.694;7.246;2023-04-06T08:26:12;13.57;;;5.53;;
4096;SDS011;2062;50.694;7.246;2023-04-06T08:28:39;14.23;;;5.60;;
4096;SDS011;2062;50.694;7.246;2023-04-06T08:31:06;13.07;;;5.43;;
4096;SDS011;2062;50.694;7.246;2023-04-06T08:33:35;14.32;;;5.97;;
4096;SDS011;2062;50.694;7.246;2023-04-06T08:36:07;12.15;;;5.35;;
4096;SDS011;2062;50.694;7.246;2023-04-06T08:38:35;11.77;;;5.37;;
4096;SDS011;2062;50.694;7.246;2023-04-06T08:41:12;11.57;;;5.40;;
4096;SDS011;2062;50.694;7.246;2023-04-06T08:43:41;11.23;;;5.05;;
4096;SDS011;2062;50.694;7.246;2023-04-06T08:46:10;11.85;;;5.20;;
4096;SDS011;2062;50.694;7.246;2023-04-06T08:48:40;12.80;;;5.45;;
4096;SDS011;2062;50.694;7.246;2023-04-06T08:51:08;16.03;;;5.70;;
4096;SDS011;2062;50.694;7.246;2023-04-06T08:53:35;14.18;;;5.60;;
4096;SDS011;2062;50.694;7.246;2023-04-06T08:56:03;16.55;;;6.00;;
4096;SDS011;2062;50.694;7.246;2023-04-06T08:58:32;12.88;;;5.57;;
4096;SDS011;2062;50.694;7.246;2023-04-06T09:01:07;14.63;;;5.20;;
4096;SDS011;2062;50.694;7.246;2023-04-06T09:03:36;12.30;;;5.60;;
4096;SDS011;2062;50.694;7.246;2023-04-06T09:06:06;13.88;;;5.57;;
4096;SDS011;2062;50.694;7.246;2023-04-06T09:08:34;13.60;;;5.30;;
4096;SDS011;2062;50.694;7.246;2023-04-06T09:11:01;13.02;;;5.47;;
4096;SDS011;2062;50.694;7.246;2023-04-06T09:13:29;12.65;;;5.60;;
4096;SDS011;2062;50.694;7.246;2023-04-06T09:16:00;13.27;;;5.83;;
4096;SDS011;2062;50.694;7.246;2023-04-06T09:18:28;11.90;;;5.43;;
4096;SDS011;2062;50.694;7.246;2023-04-06T09:20:59;13.82;;;6.00;;
4096;SDS011;2062;50.694;7.246;2023-04-06T09:23:28;12.07;;;5.10;;
4096;SDS011;2062;50.694;7.246;2023-04-06T09:26:05;11.93;;;5.50;;
4096;SDS011;2062;50.694;7.246;2023-04-06T09:28:42;11.57;;;5.13;;
4096;SDS011;2062;50.694;7.246;2023-04-06T09:31:14;13.43;;;5.80;;
4096;SDS011;2062;50.694;7.246;2023-04-06T09:33:45;11.45;;;5.50;;
4096;SDS011;2062;50.694;7.246;2023-04-06T09:36:12;15.68;;;5.30;;
4096;SDS011;2062;50.694;7.246;2023-04-06T09:38:52;13.45;;;5.78;;
4096;SDS011;2062;50.694;7.246;2023-04-06T09:41:21;12.60;;;5.33;;
4096;SDS011;2062;50.694;7.246;2023-04-06T09:43:49;13.60;;;5.65;;
4096;SDS011;2062;50.694;7.246;2023-04-06T09:46:16;11.43;;;5.03;;
4096;SDS011;2062;50.694;7.246;2023-04-06T09:48:47;12.18;;;5.47;;
4096;SDS011;2062;50.694;7.246;2023-04-06T09:51:16;13.32;;;5.20;;
4096;SDS011;2062;50.694;7.246;2023-04-06T09:53:45;12.73;;;5.53;;
4096;SDS011;2062;50.694;7.246;2023-04-06T09:56:20;12.15;;;5.47;;
4096;SDS011;2062;50.694;7.246;2023-04-06T09:58:52;11.85;;;5.43;;
4096;SDS011;2062;50.694;7.246;2023-04-06T10:01:27;12.52;;;5.05;;
4096;SDS011;2062;50.694;7.246;2023-04-06T10:03:56;12.43;;;5.13;;
4096;SDS011;2062;50.694;7.246;2023-04-06T10:06:33;12.43;;;5.10;;
4096;SDS011;2062;50.694;7.246;2023-04-06T10:09:01;13.52;;;5.55;;
4096;SDS011;2062;50.694;7.246;2023-04-06T10:11:31;11.77;;;5.32;;
4096;SDS011;2062;50.694;7.246;2023-04-06T10:14:00;12.80;;;5.28;;
4096;SDS011;2062;50.694;7.246;2023-04-06T10:16:27;14.07;;;5.88;;
4096;SDS011;2062;50.694;7.246;2023-04-06T10:18:56;14.43;;;5.30;;
4096;SDS011;2062;50.694;7.246;2023-04-06T10:21:28;12.45;;;5.63;;
4096;SDS011;2062;50.694;7.246;2023-04-06T10:23:58;15.27;;;6.00;;
4096;SDS011;2062;50.694;7.246;2023-04-06T10:26:27;15.27;;;5.97;;
4096;SDS011;2062;50.694;7.246;2023-04-06T10:29:01;14.65;;;6.10;;
4096;SDS011;2062;50.694;7.246;2023-04-06T10:31:29;12.43;;;5.07;;
4096;SDS011;2062;50.694;7.246;2023-04-06T10:33:57;13.25;;;5.70;;
4096;SDS011;2062;50.694;7.246;2023-04-06T10:36:27;16.20;;;5.95;;
4096;SDS011;2062;50.694;7.246;2023-04-06T10:38:58;14.50;;;6.38;;
4096;SDS011;2062;50.694;7.246;2023-04-06T10:41:31;14.75;;;6.05;;
4096;SDS011;2062;50.694;7.246;2023-04-06T10:44:00;12.43;;;5.50;;
4096;SDS011;2062;50.694;7.246;2023-04-06T10:46:27;13.57;;;5.60;;
4096;SDS011;2062;50.694;7.246;2023-04-06T10:49:09;14.13;;;5.47;;
4096;SDS011;2062;50.694;7.246;2023-04-06T10:51:38;12.88;;;5.28;;
4096;SDS011;2062;50.694;7.246;2023-04-06T10:54:05;12.85;;;5.30;;
4096;SDS011;2062;50.694;7.246;2023-04-06T10:56:33;13.93;;;5.17;;
4096;SDS011;2062;50.694;7.246;2023-04-06T10:59:05;12.88;;;5.22;;
4096;SDS011;2062;50.694;7.246;2023-04-06T11:01:33;13.18;;;5.22;;
4096;SDS011;2062;50.694;7.246;2023-04-06T11:04:00;13.85;;;5.13;;
4096;SDS011;2062;50.694;7.246;2023-04-06T11:06:29;13.98;;;5.60;;
4096;SDS011;2062;50.694;7.246;2023-04-06T11:08:57;13.23;;;4.63;;
4096;SDS011;2062;50.694;7.246;2023-04-06T11:11:25;13.20;;;5.13;;
4096;SDS011;2062;50.694;7.246;2023-04-06T11:13:53;14.05;;;5.00;;
4096;SDS011;2062;50.694;7.246;2023-04-06T11:16:23;14.90;;;5.72;;
4096;SDS011;2062;50.694;7.246;2023-04-06T11:18:52;13.95;;;5.57;;
4096;SDS011;2062;50.694;7.246;2023-04-06T11:21:30;14.93;;;5.57;;
4096;SDS011;2062;50.694;7.246;2023-04-06T11:24:03;12.55;;;5.35;;
4096;SDS011;2062;50.694;7.246;2023-04-06T11:26:36;13.88;;;5.18;;
4096;SDS011;2062;50.694;7.246;2023-04-06T11:29:03;11.50;;;4.72;;
4096;SDS011;2062;50.694;7.246;2023-04-06T11:31:32;11.63;;;5.13;;
4096;SDS011;2062;50.694;7.246;2023-04-06T11:34:08;13.00;;;5.20;;
4096;SDS011;2062;50.694;7.246;2023-04-06T11:36:36;11.80;;;5.30;;
4096;SDS011;2062;50.694;7.246;2023-04-06T11:39:06;12.15;;;5.32;;
4096;SDS011;2062;50.694;7.246;2023-04-06T11:41:33;15.02;;;5.65;;
4096;SDS011;2062;50.694;7.246;2023-04-06T11:44:01;14.38;;;5.43;;
4096;SDS011;2062;50.694;7.246;2023-04-06T11:46:28;11.93;;;5.03;;
4096;SDS011;2062;50.694;7.246;2023-04-06T11:48:58;13.07;;;5.18;;
4096;SDS011;2062;50.694;7.246;2023-04-06T11:51:26;13.65;;;5.35;;
4096;SDS011;2062;50.694;7.246;2023-04-06T11:53:53;13.80;;;5.55;;
4096;SDS011;2062;50.694;7.246;2023-04-06T11:56:27;12.85;;;5.00;;
4096;SDS011;2062;50.694;7.246;2023-04-06T11:58:56;14.50;;;5.43;;
4096;SDS011;2062;50.694;7.246;2023-04-06T12:01:23;12.60;;;4.97;;
4096;SDS011;2062;50.694;7.246;2023-04-06T12:03:51;15.35;;;5.57;;
4096;SDS011;2062;50.694;7.246;2023-04-06T12:06:20;13.77;;;4.95;;
4096;SDS011;2062;50.694;7.246;2023-04-06T12:08:47;15.13;;;5.28;;
4096;SDS011;2062;50.694;7.246;2023-04-06T12:11:14;13.63;;;4.80;;
4096;SDS011;2062;50.694;7.246;2023-04-06T12:13:41;13.60;;;5.15;;
4096;SDS011;2062;50.694;7.246;2023-04-06T12:16:08;13.43;;;5.18;;
4096;SDS011;2062;50.694;7.246;2023-04-06T12:18:35;13.90;;;5.72;;
4096;SDS011;2062;50.694;7.246;2023-04-06T12:21:02;14.85;;;5.40;;
4096;SDS011;2062;50.694;7.246;2023-04-06T12:23:32;13.37;;;5.33;;
4096;SDS011;2062;50.694;7.246;2023-04-06T12:25:58;12.35;;;5.05;;
4096;SDS011;2062;50.694;7.246;2023-04-06T12:28:26;15.38;;;5.15;;
4096;SDS011;2062;50.694;7.246;2023-04-06T12:30:53;12.70;;;5.53;;
4096;SDS011;2062;50.694;7.246;2023-04-06T12:33:21;12.85;;;5.60;;
4096;SDS011;2062;50.694;7.246;2023-04-06T12:35:47;12.93;;;5.43;;
4096;SDS011;2062;50.694;7.246;2023-04-06T12:38:15;12.77;;;5.32;;
4096;SDS011;2062;50.694;7.246;2023-04-06T12:40:43;12.25;;;4.75;;
4096;SDS011;2062;50.694;7.246;2023-04-06T12:43:10;11.77;;;4.95;;
4096;SDS011;2062;50.694;7.246;2023-04-06T12:45:38;13.65;;;4.68;;
4096;SDS011;2062;50.694;7.246;2023-04-06T12:48:05;12.43;;;4.90;;
4096;SDS011;2062;50.694;7.246;2023-04-06T12:50:32;10.68;;;4.38;;
4096;SDS011;2062;50.694;7.246;2023-04-06T12:52:59;12.23;;;4.53;;
4096;SDS011;2062;50.694;7.246;2023-04-06T12:55:27;10.52;;;3.88;;
4096;SDS011;2062;50.694;7.246;2023-04-06T12:57:57;11.88;;;4.40;;
4096;SDS011;2062;50.694;7.246;2023-04-06T13:00:25;9.60;;;3.70;;
4096;SDS011;2062;50.694;7.246;2023-04-06T13:02:52;10.77;;;4.03;;
4096;SDS011;2062;50.694;7.246;2023-04-06T13:05:19;10.00;;;4.47;;
4096;SDS011;2062;50.694;7.246;2023-04-06T13:07:46;10.35;;;4.10;;
4096;SDS011;2062;50.694;7.246;2023-04-06T13:10:13;10.18;;;4.15;;
4096;SDS011;2062;50.694;7.246;2023-04-06T13:12:40;9.10;;;3.80;;
4096;SDS011;2062;50.694;7.246;2023-04-06T13:15:09;10.90;;;3.80;;
4096;SDS011;2062;50.694;7.246;2023-04-06T13:17:36;10.88;;;3.85;;
4096;SDS011;2062;50.694;7.246;2023-04-06T13:20:04;10.55;;;4.10;;
4096;SDS011;2062;50.694;7.246;2023-04-06T13:22:32;10.15;;;3.60;;
4096;SDS011;2062;50.694;7.246;2023-04-06T13:24:59;9.73;;;3.93;;
4096;SDS011;2062;50.694;7.246;2023-04-06T13:27:26;11.77;;;4.30;;
4096;SDS011;2062;50.694;7.246;2023-04-06T13:29:53;9.75;;;4.07;;
4096;SDS011;2062;50.694;7.246;2023-04-06T13:32:23;10.23;;;4.40;;
4096;SDS011;2062;50.694;7.246;2023-04-06T13:34:50;9.68;;;4.20;;
4096;SDS011;2062;50.694;7.246;2023-04-06T13:37:20;10.00;;;4.30;;
4096;SDS011;2062;50.694;7.246;2023-04-06T13:39:47;9.52;;;4.05;;
4096;SDS011;2062;50.694;7.246;2023-04-06T13:42:14;8.05;;;3.65;;
4096;SDS011;2062;50.694;7.246;2023-04-06T13:44:41;10.70;;;4.18;;
4096;SDS011;2062;50.694;7.246;2023-04-06T13:47:07;8.18;;;3.80;;
4096;SDS011;2062;50.694;7.246;2023-04-06T13:49:36;7.40;;;3.10;;
4096;SDS011;2062;50.694;7.246;2023-04-06T13:52:03;7.70;;;2.88;;
4096;SDS011;2062;50.694;7.246;2023-04-06T13:54:30;8.20;;;3.15;;
4096;SDS011;2062;50.694;7.246;2023-04-06T13:56:57;8.75;;;3.30;;
4096;SDS011;2062;50.694;7.246;2023-04-06T13:59:24;8.88;;;3.08;;
4096;SDS011;2062;50.694;7.246;2023-04-06T14:01:51;8.23;;;3.43;;
4096;SDS011;2062;50.694;7.246;2023-04-06T14:04:17;7.65;;;3.10;;
4096;SDS011;2062;50.694;7.246;2023-04-06T14:06:46;8.70;;;3.20;;
4096;SDS011;2062;50.694;7.246;2023-04-06T14:09:12;8.63;;;2.85;;
4096;SDS011;2062;50.694;7.246;2023-04-06T14:11:39;8.63;;;2.85;;
4096;SDS011;2062;50.694;7.246;2023-04-06T14:14:06;8.43;;;2.67;;
4096;SDS011;2062;50.694;7.246;2023-04-06T14:16:33;6.78;;;2.20;;
4096;SDS011;2062;50.694;7.246;2023-04-06T14:19:00;6.75;;;2.30;;
4096;SDS011;2062;50.694;7.246;2023-04-06T14:21:27;5.63;;;2.20;;
4096;SDS011;2062;50.694;7.246;2023-04-06T14:23:56;6.25;;;2.47;;
4096;SDS011;2062;50.694;7.246;2023-04-06T14:26:22;6.47;;;2.43;;
4096;SDS011;2062;50.694;7.246;2023-04-06T14:28:49;7.30;;;2.70;;
4096;SDS011;2062;50.694;7.246;2023-04-06T14:31:17;7.55;;;3.03;;
4096;SDS011;2062;50.694;7.246;2023-04-06T14:33:44;7.75;;;2.97;;
4096;SDS011;2062;50.694;7.246;2023-04-06T14:36:11;7.60;;;2.97;;
4096;SDS011;2062;50.694;7.246;2023-04-06T14:38:38;7.90;;;2.90;;
4096;SDS011;2062;50.694;7.246;2023-04-06T14:41:07;7.97;;;3.08;;
4096;SDS011;2062;50.694;7.246;2023-04-06T14:43:34;8.82;;;3.25;;
4096;SDS011;2062;50.694;7.246;2023-04-06T14:46:01;9.77;;;3.47;;
4096;SDS011;2062;50.694;7.246;2023-04-06T14:48:28;9.57;;;3.80;;
4096;SDS011;2062;50.694;7.246;2023-04-06T14:50:55;8.97;;;3.57;;
4096;SDS011;2062;50.694;7.246;2023-04-06T14:53:23;9.68;;;3.60;;
4096;SDS011;2062;50.694;7.246;2023-04-06T14:55:50;9.10;;;4.10;;
4096;SDS011;2062;50.694;7.246;2023-04-06T14:58:18;9.05;;;3.67;;
4096;SDS011;2062;50.694;7.246;2023-04-06T15:00:46;9.25;;;3.60;;
4096;SDS011;2062;50.694;7.246;2023-04-06T15:03:13;9.00;;;3.60;;
4096;SDS011;2062;50.694;7.246;2023-04-06T15:05:41;9.45;;;3.70;;
4096;SDS011;2062;50.694;7.246;2023-04-06T15:08:08;8.23;;;3.03;;